Time;durP1;ratioP1;P1;durP2;ratioP2;P2;SDS_P1;SDS_P2;PMS_P1;PMS_P2;Temp;Humidity;BMP_temperature;BMP_pressure;BME280_temperature;BME280_humidity;BME280_pressure;Samples;Min_cycle;Max_cycle;Signal;HPM_P1;HPM_P2
2023/04/24 00:02:56;;;;;;;;;;;9.70;99.90;;;;;;8258001;28;19917;-77
2023/04/24 00:06:59;;;;;;;;;;;9.80;99.90;;;;;;8257228;28;19921;-77
2023/04/24 00:11:00;;;;;;;;;;;9.90;99.90;;;;;;8257590;28;19933;-76
2023/04/24 00:15:01;;;;;;;;;;;9.90;99.90;;;;;;8249923;28;19918;-78
2023/04/24 00:19:01;;;;;;;;;;;9.80;99.90;;;;;;8257336;28;20430;-76
2023/04/24 00:23:02;;;;;;;;;;;9.90;99.90;;;;;;8259978;28;20013;-75
2023/04/24 00:27:03;;;;;;;;;;;9.90;99.90;;;;;;8257694;28;19914;-75
2023/04/24 00:31:03;;;;;;;;;;;9.80;99.90;;;;;;8249684;28;19964;-76
2023/04/24 00:35:05;;;;;;;;;;;9.80;99.90;;;;;;8257647;28;20382;-76
2023/04/24 00:39:08;;;;;;;;;;;9.70;99.90;;;;;;8257390;28;19922;-76
2023/04/24 00:43:08;;;;;;;;;;;9.70;99.90;;;;;;8257953;28;19937;-75
2023/04/24 00:47:10;;;;;;;;;;;9.80;99.90;;;;;;8256535;28;20009;-76
2023/04/24 00:51:10;;;;;;;;;;;9.80;99.90;;;;;;8255414;28;20291;-76
2023/04/24 00:55:11;;;;;;;;;;;9.90;99.90;;;;;;8263483;28;19913;-76
2023/04/24 00:59:12;;;;;;;;;;;9.80;99.90;;;;;;8263185;28;20404;-77
2023/04/24 01:03:13;;;;;;;;;;;9.90;99.90;;;;;;8259035;28;20482;-77
2023/04/24 01:07:14;;;;;;;;;;;9.80;99.90;;;;;;8258404;28;20325;-76
2023/04/24 01:11:14;;;;;;;;;;;9.80;99.90;;;;;;8263292;28;19960;-77
2023/04/24 01:15:15;;;;;;;;;;;9.70;99.90;;;;;;8262026;28;20349;-76
2023/04/24 01:19:16;;;;;;;;;;;9.70;99.90;;;;;;8257814;28;20460;-76
2023/04/24 01:23:17;;;;;;;;;;;9.70;99.90;;;;;;8261366;28;20013;-77
2023/04/24 01:27:17;;;;;;;;;;;9.70;99.90;;;;;;8257631;28;19921;-77
2023/04/24 01:31:18;;;;;;;;;;;9.60;99.90;;;;;;8262592;28;20366;-77
2023/04/24 01:35:18;;;;;;;;;;;9.60;99.90;;;;;;8258703;28;20005;-76
2023/04/24 01:39:20;;;;;;;;;;;9.60;99.90;;;;;;8261374;28;19917;-76
2023/04/24 01:43:21;;;;;;;;;;;9.60;99.90;;;;;;8253250;28;19925;-75
2023/04/24 01:47:22;;;;;;;;;;;9.60;99.90;;;;;;8259042;28;19914;-76
2023/04/24 01:51:22;;;;;;;;;;;9.50;99.90;;;;;;8260669;28;20012;-77
2023/04/24 01:55:23;;;;;;;;;;;9.50;99.90;;;;;;8261599;28;19913;-76
2023/04/24 01:59:25;;;;;;;;;;;9.30;99.90;;;;;;8261915;28;19910;-76
2023/04/24 02:03:26;;;;;;;;;;;9.40;99.90;;;;;;8256683;28;19914;-77
2023/04/24 02:07:26;;;;;;;;;;;9.40;99.90;;;;;;8259923;28;19921;-76
2023/04/24 02:11:26;;;;;;;;;;;9.40;99.90;;;;;;8253617;28;20051;-77
2023/04/24 02:15:27;;;;;;;;;;;9.50;99.90;;;;;;8262535;28;19910;-76
2023/04/24 02:19:28;;;;;;;;;;;9.50;99.90;;;;;;8262561;28;19910;-77
2023/04/24 02:23:28;;;;;;;;;;;9.50;99.90;;;;;;8255232;28;19924;-77
2023/04/24 02:27:29;;;;;;;;;;;9.60;99.90;;;;;;8260776;28;19910;-75
2023/04/24 02:31:29;;;;;;;;;;;9.60;99.90;;;;;;8260258;28;19917;-76
2023/04/24 02:35:30;;;;;;;;;;;9.70;99.90;;;;;;8259801;28;19945;-76
2023/04/24 02:39:30;;;;;;;;;;;9.60;99.90;;;;;;8255083;28;20390;-77
2023/04/24 02:43:31;;;;;;;;;;;9.60;99.90;;;;;;8259222;28;20318;-76
2023/04/24 02:47:31;;;;;;;;;;;9.50;99.90;;;;;;8260664;28;20000;-76
2023/04/24 02:51:32;;;;;;;;;;;9.40;99.90;;;;;;8259128;28;20555;-77
2023/04/24 02:55:32;;;;;;;;;;;9.50;99.90;;;;;;8260472;28;19964;-77
2023/04/24 02:59:33;;;;;;;;;;;9.50;99.90;;;;;;8254625;28;19914;-77
2023/04/24 03:03:33;;;;;;;;;;;9.50;99.90;;;;;;8253755;28;20005;-77
2023/04/24 03:07:34;;;;;;;;;;;9.50;99.90;;;;;;8257512;28;19952;-77
2023/04/24 03:11:34;;;;;;;;;;;9.50;99.90;;;;;;8255514;28;19921;-76
2023/04/24 03:15:35;;;;;;;;;;;9.50;99.90;;;;;;8260750;28;20359;-75
2023/04/24 03:19:35;;;;;;;;;;;9.50;99.90;;;;;;8257206;28;19996;-77
2023/04/24 03:23:35;;;;;;;;;;;9.40;99.90;;;;;;8257460;28;20517;-76
2023/04/24 03:27:37;;;;;;;;;;;9.30;99.90;;;;;;8259811;28;19918;-76
2023/04/24 03:31:37;;;;;;;;;;;9.30;99.90;;;;;;8271787;28;19952;-77
2023/04/24 03:35:38;;;;;;;;;;;9.30;99.90;;;;;;8257769;28;19910;-76
2023/04/24 03:39:38;;;;;;;;;;;9.50;99.90;;;;;;8256412;28;19914;-75
2023/04/24 03:43:39;;;;;;;;;;;9.40;99.90;;;;;;8256022;28;19914;-76
2023/04/24 03:47:39;;;;;;;;;;;9.40;99.90;;;;;;8253625;28;19929;-77
2023/04/24 03:51:40;;;;;;;;;;;9.40;99.90;;;;;;8284898;23;19929;-79
2023/04/24 03:55:40;;;;;;;;;;;9.50;99.90;;;;;;8322966;28;20385;-78
2023/04/24 03:59:40;;;;;;;;;;;9.50;99.90;;;;;;8327846;28;19916;-78
2023/04/24 04:03:41;;;;;;;;;;;9.50;99.90;;;;;;8303503;28;19909;-79
2023/04/24 04:07:42;;;;;;;;;;;9.30;99.90;;;;;;8295034;28;19921;-79
2023/04/24 04:11:42;;;;;;;;;;;9.20;99.90;;;;;;8277164;28;19928;-78
2023/04/24 04:15:42;;;;;;;;;;;9.20;99.90;;;;;;8299676;28;19913;-79
2023/04/24 04:19:43;;;;;;;;;;;9.20;99.90;;;;;;8286225;28;19913;-78
2023/04/24 04:23:43;;;;;;;;;;;9.20;99.90;;;;;;8278004;28;20568;-79
2023/04/24 04:27:44;;;;;;;;;;;9.10;99.90;;;;;;8294107;28;19913;-78
2023/04/24 04:31:45;;;;;;;;;;;9.10;99.90;;;;;;8287621;28;20465;-78
2023/04/24 04:35:48;;;;;;;;;;;9.20;99.90;;;;;;8281768;28;19967;-79
2023/04/24 04:39:49;;;;;;;;;;;9.20;99.90;;;;;;8275481;28;19997;-78
2023/04/24 04:43:49;;;;;;;;;;;9.10;99.90;;;;;;8301658;28;19988;-78
2023/04/24 04:47:50;;;;;;;;;;;9.00;99.90;;;;;;8299012;28;19921;-79
2023/04/24 04:51:50;;;;;;;;;;;9.00;99.90;;;;;;8304541;28;19931;-80
2023/04/24 04:55:51;;;;;;;;;;;9.00;99.90;;;;;;8288349;28;20516;-80
2023/04/24 04:59:51;;;;;;;;;;;9.40;99.90;;;;;;8301168;28;19910;-80
2023/04/24 05:03:52;;;;;;;;;;;9.40;99.90;;;;;;8280566;28;19913;-79
2023/04/24 05:07:52;;;;;;;;;;;9.30;99.90;;;;;;8280852;28;19914;-80
2023/04/24 05:11:53;;;;;;;;;;;9.40;99.90;;;;;;8274604;28;19943;-78
2023/04/24 05:15:53;;;;;;;;;;;9.40;99.90;;;;;;8281224;28;19923;-80
2023/04/24 05:19:54;;;;;;;;;;;9.50;99.90;;;;;;8283012;28;19921;-79
2023/04/24 05:23:55;;;;;;;;;;;9.50;99.90;;;;;;8286317;28;19913;-79
2023/04/24 05:27:55;;;;;;;;;;;9.60;99.90;;;;;;8279587;28;19924;-79
2023/04/24 05:31:56;;;;;;;;;;;9.60;99.90;;;;;;8286639;28;19932;-77
2023/04/24 05:35:56;;;;;;;;;;;9.60;99.90;;;;;;8286392;28;19918;-80
2023/04/24 05:39:56;;;;;;;;;;;9.50;99.90;;;;;;8280686;28;19910;-79
2023/04/24 05:43:57;;;;;;;;;;;9.60;99.90;;;;;;8298474;28;20177;-79
2023/04/24 05:47:57;;;;;;;;;;;9.70;99.90;;;;;;8280204;28;19909;-79
2023/04/24 05:51:58;;;;;;;;;;;9.80;99.90;;;;;;8278385;28;19928;-77
2023/04/24 05:55:58;;;;;;;;;;;9.80;99.90;;;;;;8281635;28;20063;-78
2023/04/24 05:59:59;;;;;;;;;;;9.90;99.90;;;;;;8285223;28;19921;-77
2023/04/24 06:03:59;;;;;;;;;;;10.00;99.90;;;;;;8283217;28;19914;-79
2023/04/24 06:07:59;;;;;;;;;;;10.00;99.90;;;;;;8289864;28;19914;-79
2023/04/24 06:12:00;;;;;;;;;;;10.10;99.90;;;;;;8284396;28;20421;-78
2023/04/24 06:16:01;;;;;;;;;;;10.40;99.90;;;;;;8285522;28;19909;-78
2023/04/24 06:20:04;;;;;;;;;;;10.50;99.90;;;;;;8290791;28;19924;-79
2023/04/24 06:24:05;;;;;;;;;;;10.50;99.90;;;;;;8300669;28;19929;-79
2023/04/24 06:28:06;;;;;;;;;;;10.40;99.90;;;;;;8284872;28;19920;-79
2023/04/24 06:32:06;;;;;;;;;;;10.30;99.90;;;;;;8277384;28;19914;-79
2023/04/24 06:36:07;;;;;;;;;;;9.80;99.90;;;;;;8297100;28;19913;-76
2023/04/24 06:40:07;;;;;;;;;;;7.90;99.90;;;;;;8280736;28;19968;-78
2023/04/24 06:44:08;;;;;;;;;;;7.20;99.90;;;;;;8302560;28;19918;-78
2023/04/24 06:48:08;;;;;;;;;;;7.10;99.90;;;;;;8279063;28;20691;-80
2023/04/24 06:52:09;;;;;;;;;;;7.10;99.90;;;;;;8303243;28;19918;-78
2023/04/24 06:56:10;;;;;;;;;;;7.30;99.90;;;;;;8279545;28;19913;-78
2023/04/24 07:00:10;;;;;;;;;;;7.60;99.90;;;;;;8276294;28;19926;-79
2023/04/24 07:04:12;;;;;;;;;;;7.80;99.90;;;;;;8297652;28;20012;-79
2023/04/24 07:08:13;;;;;;;;;;;7.80;99.90;;;;;;8299593;28;20389;-78
2023/04/24 07:12:13;;;;;;;;;;;7.80;99.90;;;;;;8296573;28;19953;-77
2023/04/24 07:16:14;;;;;;;;;;;7.90;99.90;;;;;;8295676;28;19917;-78
2023/04/24 07:20:15;;;;;;;;;;;7.80;99.90;;;;;;8298614;28;20040;-77
2023/04/24 07:24:15;;;;;;;;;;;7.90;99.90;;;;;;8285820;28;19918;-77
2023/04/24 07:28:18;;;;;;;;;;;8.20;99.90;;;;;;8300694;28;21359;-78
2023/04/24 07:32:18;;;;;;;;;;;8.60;99.90;;;;;;8286190;28;19916;-77
2023/04/24 07:36:19;;;;;;;;;;;9.00;99.90;;;;;;8305525;28;19917;-78
2023/04/24 07:40:20;;;;;;;;;;;9.60;99.90;;;;;;8289593;28;19925;-78
2023/04/24 07:44:20;;;;;;;;;;;10.10;99.90;;;;;;8286887;28;19914;-77
2023/04/24 07:48:22;;;;;;;;;;;10.50;99.90;;;;;;8276523;28;19914;-78
2023/04/24 07:52:22;;;;;;;;;;;11.30;99.90;;;;;;8276070;28;19968;-78
2023/04/24 07:56:23;;;;;;;;;;;11.20;99.90;;;;;;8262719;28;20020;-79
2023/04/24 08:00:23;;;;;;;;;;;12.20;99.90;;;;;;8270727;28;20016;-78
2023/04/24 08:04:24;;;;;;;;;;;12.60;99.90;;;;;;8262431;28;19921;-79
2023/04/24 08:08:24;;;;;;;;;;;12.90;99.90;;;;;;8290294;28;20012;-78
2023/04/24 08:12:25;;;;;;;;;;;13.20;99.90;;;;;;8303624;28;19920;-78
2023/04/24 08:16:25;;;;;;;;;;;13.30;99.90;;;;;;8302218;28;20032;-78
2023/04/24 08:20:26;;;;;;;;;;;13.30;99.90;;;;;;8299212;28;19921;-79
2023/04/24 08:24:26;;;;;;;;;;;13.50;99.90;;;;;;8282960;28;19925;-79
2023/04/24 08:28:27;;;;;;;;;;;13.30;99.90;;;;;;8283473;28;19913;-77
2023/04/24 08:32:30;;;;;;;;;;;13.20;99.90;;;;;;8299245;28;20404;-78
2023/04/24 08:36:31;;;;;;;;;;;12.80;99.90;;;;;;8301797;28;19952;-79
2023/04/24 08:40:33;;;;;;;;;;;12.20;99.90;;;;;;8281866;28;20000;-76
2023/04/24 08:44:35;;;;;;;;;;;10.40;99.90;;;;;;8284692;28;19952;-79
2023/04/24 08:48:36;;;;;;;;;;;9.00;99.90;;;;;;8299685;28;19916;-79
2023/04/24 08:52:36;;;;;;;;;;;8.50;99.90;;;;;;8304739;28;20370;-80
2023/04/24 08:56:39;;;;;;;;;;;8.30;99.90;;;;;;8294490;28;20003;-82
2023/04/24 09:00:39;;;;;;;;;;;8.00;99.90;;;;;;8264462;28;20200;-81
2023/04/24 09:04:40;;;;;;;;;;;8.00;99.90;;;;;;8279471;28;19917;-80
2023/04/24 09:08:41;;;;;;;;;;;8.00;99.90;;;;;;8270090;28;20251;-82
2023/04/24 09:12:42;;;;;;;;;;;8.20;99.90;;;;;;8274449;28;19914;-82
2023/04/24 09:16:42;;;;;;;;;;;8.70;99.90;;;;;;8297732;28;19941;-78
2023/04/24 09:21:03;;;;;;;;;;;9.40;99.90;;;;;;8279409;28;20328;-81
2023/04/24 09:25:05;;;;;;;;;;;10.90;99.90;;;;;;8285364;28;19998;-82
2023/04/24 09:29:05;;;;;;;;;;;12.40;99.90;;;;;;8296480;28;19921;-83
2023/04/24 09:33:10;;;;;;;;;;;13.90;99.90;;;;;;8267098;28;19984;-80
2023/04/24 09:37:10;;;;;;;;;;;14.10;99.90;;;;;;8280621;28;19918;-81
2023/04/24 09:41:13;;;;;;;;;;;13.90;99.90;;;;;;8298084;28;20453;-80
2023/04/24 09:45:13;;;;;;;;;;;13.10;99.90;;;;;;8261762;28;19940;-81
2023/04/24 09:49:16;;;;;;;;;;;11.90;99.90;;;;;;8285834;28;19918;-81
2023/04/24 09:57:19;;;;;;;;;;;12.40;99.90;;;;;;8291930;28;20308;-80
2023/04/24 10:01:29;;;;;;;;;;;13.30;99.90;;;;;;8293047;28;19918;-80
2023/04/24 10:05:31;;;;;;;;;;;13.60;99.90;;;;;;8291417;28;19916;-79
2023/04/24 10:09:31;;;;;;;;;;;13.70;99.90;;;;;;8275343;28;19916;-79
2023/04/24 10:13:32;;;;;;;;;;;13.30;99.90;;;;;;8292704;28;19920;-80
2023/04/24 10:17:33;;;;;;;;;;;12.80;99.90;;;;;;8292087;28;19910;-77
2023/04/24 10:21:34;;;;;;;;;;;12.20;99.90;;;;;;8291328;28;19957;-80
2023/04/24 10:25:36;;;;;;;;;;;11.80;99.90;;;;;;8273454;28;19914;-80
2023/04/24 10:29:38;;;;;;;;;;;13.20;99.90;;;;;;8293204;28;20028;-79
2023/04/24 10:33:43;;;;;;;;;;;15.20;99.90;;;;;;8280306;28;20521;-78
2023/04/24 10:37:48;;;;;;;;;;;16.80;99.90;;;;;;8273161;28;19940;-78
2023/04/24 10:41:49;;;;;;;;;;;17.00;99.90;;;;;;8273661;28;19925;-78
2023/04/24 10:46:03;;;;;;;;;;;16.90;99.90;;;;;;8275013;28;19917;-78
2023/04/24 10:50:07;;;;;;;;;;;16.70;99.90;;;;;;8278672;28;19909;-79
2023/04/24 10:54:26;;;;;;;;;;;16.50;99.90;;;;;;8295052;28;19918;-78
2023/04/24 10:58:36;;;;;;;;;;;16.30;99.90;;;;;;8274955;28;19917;-78
2023/04/24 11:02:37;;;;;;;;;;;17.00;99.90;;;;;;8270264;28;19914;-79
2023/04/24 11:06:40;;;;;;;;;;;15.60;99.90;;;;;;8271142;28;19925;-78
2023/04/24 11:10:43;;;;;;;;;;;14.20;99.90;;;;;;8290009;28;19945;-79
2023/04/24 11:14:56;;;;;;;;;;;13.40;99.90;;;;;;8291167;28;20003;-78
2023/04/24 11:19:20;;;;;;;;;;;13.60;99.90;;;;;;8290445;28;19909;-79
2023/04/24 11:23:20;;;;;;;;;;;13.70;99.90;;;;;;8264131;28;19925;-78
2023/04/24 11:27:22;;;;;;;;;;;14.10;99.90;;;;;;8272330;28;19960;-78
2023/04/24 11:31:38;;;;;;;;;;;14.40;99.90;;;;;;8271904;28;19916;-78
2023/04/24 11:35:40;;;;;;;;;;;15.20;99.90;;;;;;8269777;28;19964;-78
2023/04/24 11:39:40;;;;;;;;;;;15.70;99.90;;;;;;8292324;28;19925;-78
2023/04/24 11:43:41;;;;;;;;;;;16.30;99.90;;;;;;8290660;28;20454;-79
2023/04/24 11:47:42;;;;;;;;;;;17.20;99.90;;;;;;8272278;28;19909;-78
2023/04/24 11:51:42;;;;;;;;;;;18.10;99.90;;;;;;8274510;28;19945;-78
2023/04/24 11:55:43;;;;;;;;;;;17.00;99.90;;;;;;8277628;28;19917;-78
2023/04/24 11:59:43;;;;;;;;;;;16.90;99.90;;;;;;8279825;28;19913;-78
2023/04/24 12:03:48;;;;;;;;;;;17.20;98.40;;;;;;8272510;28;19925;-77
2023/04/24 12:07:49;;;;;;;;;;;18.60;99.90;;;;;;8271619;28;20329;-79
2023/04/24 12:11:56;;;;;;;;;;;19.10;95.00;;;;;;8271065;28;19972;-77
2023/04/24 12:15:57;;;;;;;;;;;19.20;92.20;;;;;;8271213;28;19917;-77
2023/04/24 12:20:02;;;;;;;;;;;19.50;93.40;;;;;;8288294;28;19957;-77
2023/04/24 12:24:05;;;;;;;;;;;19.90;88.70;;;;;;8272011;28;19924;-78
2023/04/24 12:28:07;;;;;;;;;;;18.20;86.80;;;;;;8270791;28;20415;-79
2023/04/24 12:32:15;;;;;;;;;;;17.20;93.50;;;;;;8288707;28;19917;-78
2023/04/24 12:36:16;;;;;;;;;;;15.80;95.40;;;;;;8289953;28;20007;-78
2023/04/24 12:40:17;;;;;;;;;;;14.30;98.90;;;;;;8274939;28;20381;-78
2023/04/24 12:44:18;;;;;;;;;;;13.30;99.90;;;;;;8287425;28;19940;-79
2023/04/24 12:48:20;;;;;;;;;;;12.50;99.90;;;;;;8267571;28;19922;-78
2023/04/24 12:52:23;;;;;;;;;;;12.50;99.90;;;;;;8291651;28;19926;-78
2023/04/24 12:56:24;;;;;;;;;;;13.70;99.90;;;;;;8294564;28;20024;-80
2023/04/24 13:00:25;;;;;;;;;;;14.70;99.90;;;;;;8275474;28;19996;-78
2023/04/24 13:04:25;;;;;;;;;;;15.70;99.90;;;;;;8292309;28;20394;-78
2023/04/24 13:08:26;;;;;;;;;;;15.50;99.90;;;;;;8274495;28;20322;-78
2023/04/24 13:12:26;;;;;;;;;;;14.70;99.90;;;;;;8277760;28;19972;-78
2023/04/24 13:16:27;;;;;;;;;;;14.20;99.90;;;;;;8274976;28;19926;-78
2023/04/24 13:20:27;;;;;;;;;;;13.40;99.90;;;;;;8274516;28;19925;-78
2023/04/24 13:24:27;;;;;;;;;;;13.10;99.90;;;;;;8292790;28;20313;-77
2023/04/24 13:28:29;;;;;;;;;;;14.50;99.90;;;;;;8274827;28;19914;-78
2023/04/24 13:32:30;;;;;;;;;;;14.60;99.90;;;;;;8286239;28;19917;-78
2023/04/24 13:36:31;;;;;;;;;;;14.80;99.90;;;;;;8274564;28;19948;-78
2023/04/24 13:40:32;;;;;;;;;;;13.80;99.90;;;;;;8290352;28;19922;-78
2023/04/24 13:44:32;;;;;;;;;;;12.80;99.90;;;;;;8290611;28;20625;-78
2023/04/24 13:48:32;;;;;;;;;;;13.40;99.90;;;;;;8274778;28;19916;-78
2023/04/24 13:52:33;;;;;;;;;;;14.20;99.90;;;;;;8297261;28;19920;-78
2023/04/24 13:56:33;;;;;;;;;;;16.00;99.90;;;;;;8274411;28;19917;-78
2023/04/24 14:00:34;;;;;;;;;;;18.00;95.20;;;;;;8286222;28;19921;-78
2023/04/24 14:04:34;;;;;;;;;;;15.80;99.50;;;;;;8270411;28;19920;-77
2023/04/24 14:08:35;;;;;;;;;;;14.70;97.40;;;;;;8276970;28;19914;-78
2023/04/24 14:12:35;;;;;;;;;;;15.20;97.50;;;;;;8272406;28;19913;-78
2023/04/24 14:16:36;;;;;;;;;;;14.00;99.90;;;;;;8267721;28;19936;-78
2023/04/24 14:20:36;;;;;;;;;;;13.60;99.90;;;;;;8275751;28;19972;-82
2023/04/24 14:24:36;;;;;;;;;;;13.50;99.90;;;;;;8301133;28;19913;-82
2023/04/24 14:28:37;;;;;;;;;;;13.90;99.90;;;;;;8296336;28;19921;-82
2023/04/24 14:32:38;;;;;;;;;;;14.00;99.90;;;;;;8293353;28;19913;-80
2023/04/24 14:36:38;;;;;;;;;;;14.30;99.90;;;;;;8289205;28;19909;-82
2023/04/24 14:40:40;;;;;;;;;;;16.70;97.60;;;;;;8293331;28;20012;-81
2023/04/24 14:44:40;;;;;;;;;;;18.10;95.60;;;;;;8293344;28;20753;-80
2023/04/24 14:48:41;;;;;;;;;;;17.20;94.80;;;;;;8276690;28;19913;-81
2023/04/24 14:52:41;;;;;;;;;;;15.00;96.80;;;;;;8294768;28;19913;-83
2023/04/24 14:56:43;;;;;;;;;;;14.00;99.90;;;;;;8296261;28;19921;-82
2023/04/24 15:00:44;;;;;;;;;;;14.80;99.60;;;;;;8277263;28;19925;-82
2023/04/24 15:04:44;;;;;;;;;;;15.10;99.70;;;;;;8278072;28;20051;-82
2023/04/24 15:08:45;;;;;;;;;;;15.60;98.70;;;;;;8295926;28;20647;-81
2023/04/24 15:12:45;;;;;;;;;;;14.30;99.90;;;;;;8275068;28;20385;-81
2023/04/24 15:16:46;;;;;;;;;;;13.90;99.90;;;;;;8279821;28;20302;-83
2023/04/24 15:20:46;;;;;;;;;;;13.40;99.90;;;;;;8298403;28;19918;-82
2023/04/24 15:24:46;;;;;;;;;;;12.90;99.90;;;;;;8298158;28;20440;-82
2023/04/24 15:28:47;;;;;;;;;;;12.90;99.90;;;;;;8284979;28;19914;-83
2023/04/24 15:32:47;;;;;;;;;;;13.20;99.90;;;;;;8298918;28;20195;-82
2023/04/24 15:36:48;;;;;;;;;;;13.50;99.90;;;;;;8282338;28;20409;-80
2023/04/24 15:40:48;;;;;;;;;;;14.50;99.90;;;;;;8271761;28;19936;-82
2023/04/24 15:44:49;;;;;;;;;;;14.10;99.50;;;;;;8272760;28;19953;-81
2023/04/24 15:48:49;;;;;;;;;;;13.20;99.90;;;;;;8293965;28;19918;-81
2023/04/24 15:52:50;;;;;;;;;;;13.30;99.90;;;;;;8272590;28;19914;-79
2023/04/24 15:56:50;;;;;;;;;;;12.70;99.90;;;;;;8285426;28;19918;-78
2023/04/24 16:00:52;;;;;;;;;;;12.60;99.90;;;;;;8284733;28;19921;-79
2023/04/24 16:04:53;;;;;;;;;;;12.60;99.90;;;;;;8274515;28;20275;-78
2023/04/24 16:08:54;;;;;;;;;;;12.90;99.90;;;;;;8284015;28;19913;-78
2023/04/24 16:12:54;;;;;;;;;;;13.30;99.90;;;;;;8266502;28;20344;-78
2023/04/24 16:16:55;;;;;;;;;;;13.20;99.90;;;;;;8288378;28;20290;-79
2023/04/24 16:20:55;;;;;;;;;;;13.10;99.90;;;;;;8290974;28;19917;-79
2023/04/24 16:24:57;;;;;;;;;;;12.70;99.90;;;;;;8272829;28;19914;-80
2023/04/24 16:28:57;;;;;;;;;;;12.60;99.90;;;;;;8276431;28;19918;-79
2023/04/24 16:32:58;;;;;;;;;;;12.30;99.90;;;;;;8271133;28;19921;-78
2023/04/24 16:36:58;;;;;;;;;;;12.10;99.90;;;;;;8300026;28;20286;-79
2023/04/24 16:40:59;;;;;;;;;;;12.00;99.90;;;;;;8296190;28;19921;-79
2023/04/24 16:44:59;;;;;;;;;;;11.80;99.90;;;;;;8292476;28;19913;-78
2023/04/24 16:49:00;;;;;;;;;;;11.80;99.90;;;;;;8276172;28;19921;-77
2023/04/24 16:53:00;;;;;;;;;;;11.80;99.90;;;;;;8276328;28;20697;-78
2023/04/24 16:57:02;;;;;;;;;;;11.60;99.90;;;;;;8272841;28;19976;-79
2023/04/24 17:01:02;;;;;;;;;;;11.40;99.90;;;;;;8276667;28;19913;-79
2023/04/24 17:05:03;;;;;;;;;;;11.40;99.90;;;;;;8291981;28;19939;-78
2023/04/24 17:09:03;;;;;;;;;;;11.30;99.90;;;;;;8295354;28;19914;-78
2023/04/24 17:13:03;;;;;;;;;;;11.10;99.90;;;;;;8273919;28;19913;-78
2023/04/24 17:17:04;;;;;;;;;;;10.90;99.90;;;;;;8295020;28;19914;-79
2023/04/24 17:21:04;;;;;;;;;;;10.70;99.90;;;;;;8292021;28;19925;-77
2023/04/24 17:25:05;;;;;;;;;;;10.50;99.90;;;;;;8276680;28;19914;-78
2023/04/24 17:29:06;;;;;;;;;;;10.30;99.90;;;;;;8273930;28;20463;-78
2023/04/24 17:33:06;;;;;;;;;;;10.10;99.90;;;;;;8291724;28;19944;-79
2023/04/24 17:37:07;;;;;;;;;;;9.80;99.90;;;;;;8272610;28;19914;-83
2023/04/24 17:41:07;;;;;;;;;;;9.50;99.90;;;;;;8276106;28;20477;-78
2023/04/24 17:45:08;;;;;;;;;;;9.60;99.90;;;;;;8288138;28;20389;-78
2023/04/24 17:49:09;;;;;;;;;;;9.30;99.90;;;;;;8274866;28;20043;-78
2023/04/24 17:53:10;;;;;;;;;;;9.20;99.90;;;;;;8280314;28;19928;-79
2023/04/24 17:57:10;;;;;;;;;;;8.90;99.90;;;;;;8292460;28;19925;-79
2023/04/24 18:01:11;;;;;;;;;;;8.70;99.90;;;;;;8272539;28;19996;-78
2023/04/24 18:05:11;;;;;;;;;;;8.60;99.90;;;;;;8280809;28;19914;-79
2023/04/24 18:09:14;;;;;;;;;;;8.50;99.90;;;;;;8291418;28;19920;-78
2023/04/24 18:13:15;;;;;;;;;;;8.60;99.90;;;;;;8282900;28;19913;-78
2023/04/24 18:17:15;;;;;;;;;;;8.60;99.90;;;;;;8271479;28;19917;-79
2023/04/24 18:21:16;;;;;;;;;;;8.50;99.90;;;;;;8266376;28;19964;-80
2023/04/24 18:25:16;;;;;;;;;;;8.40;99.90;;;;;;8284403;28;19913;-79
2023/04/24 18:29:17;;;;;;;;;;;8.50;99.90;;;;;;8268947;28;19914;-78
2023/04/24 18:33:17;;;;;;;;;;;8.30;99.90;;;;;;8280773;28;19937;-78
2023/04/24 18:37:18;;;;;;;;;;;8.20;99.90;;;;;;8272150;28;20374;-78
2023/04/24 18:41:18;;;;;;;;;;;8.20;99.90;;;;;;8287545;28;20420;-79
2023/04/24 18:45:19;;;;;;;;;;;8.10;99.90;;;;;;8280696;28;20638;-77
2023/04/24 18:49:19;;;;;;;;;;;7.80;99.90;;;;;;8269806;28;19983;-78
2023/04/24 18:53:20;;;;;;;;;;;7.30;99.90;;;;;;8283175;28;19974;-79
2023/04/24 18:57:20;;;;;;;;;;;6.90;99.90;;;;;;8285970;28;19921;-77
2023/04/24 19:01:21;;;;;;;;;;;6.70;99.90;;;;;;8257415;28;20009;-76
2023/04/24 19:05:21;;;;;;;;;;;6.50;99.90;;;;;;8280170;28;20637;-77
2023/04/24 19:09:22;;;;;;;;;;;6.40;99.90;;;;;;8267346;28;20425;-77
2023/04/24 19:13:22;;;;;;;;;;;6.20;99.90;;;;;;8269234;28;19984;-77
2023/04/24 19:17:24;;;;;;;;;;;6.10;99.90;;;;;;8287181;28;19928;-76
2023/04/24 19:21:24;;;;;;;;;;;5.80;99.90;;;;;;8279320;28;19933;-76
2023/04/24 19:25:25;;;;;;;;;;;5.70;99.90;;;;;;8278467;28;20020;-77
2023/04/24 19:29:26;;;;;;;;;;;5.80;99.90;;;;;;8269337;28;19917;-77
2023/04/24 19:33:29;;;;;;;;;;;5.90;99.90;;;;;;8262965;28;20356;-78
2023/04/24 19:37:31;;;;;;;;;;;6.00;99.90;;;;;;8287025;28;19917;-77
2023/04/24 19:41:31;;;;;;;;;;;5.90;99.90;;;;;;8270311;28;19925;-76
2023/04/24 19:45:32;;;;;;;;;;;5.70;99.90;;;;;;8267253;28;19924;-77
2023/04/24 19:49:32;;;;;;;;;;;5.60;99.90;;;;;;8291415;28;19991;-77
2023/04/24 19:53:33;;;;;;;;;;;5.80;99.90;;;;;;8288531;28;20008;-77
2023/04/24 19:57:33;;;;;;;;;;;5.60;99.90;;;;;;8278511;28;19921;-76
2023/04/24 20:01:34;;;;;;;;;;;5.30;99.90;;;;;;8277265;28;19920;-77
2023/04/24 20:05:34;;;;;;;;;;;5.10;99.90;;;;;;8284186;28;20366;-77
2023/04/24 20:09:35;;;;;;;;;;;5.10;99.90;;;;;;8300259;28;19917;-77
2023/04/24 20:13:35;;;;;;;;;;;5.10;99.90;;;;;;8295317;28;19913;-77
2023/04/24 20:17:36;;;;;;;;;;;5.10;99.90;;;;;;8279484;28;19909;-77
2023/04/24 20:21:36;;;;;;;;;;;5.00;99.90;;;;;;8295317;28;20448;-77
2023/04/24 20:25:37;;;;;;;;;;;4.90;99.90;;;;;;8293628;28;19910;-78
2023/04/24 20:29:38;;;;;;;;;;;4.80;99.90;;;;;;8300466;28;19922;-77
2023/04/24 20:33:40;;;;;;;;;;;4.60;99.90;;;;;;8293300;28;19913;-77
2023/04/24 20:37:41;;;;;;;;;;;4.40;99.90;;;;;;8303080;28;20003;-77
2023/04/24 20:41:42;;;;;;;;;;;4.50;99.90;;;;;;8273340;28;19914;-77
2023/04/24 20:45:43;;;;;;;;;;;4.70;99.90;;;;;;8290135;28;20001;-78
2023/04/24 20:49:43;;;;;;;;;;;4.90;99.90;;;;;;8295570;28;19909;-76
2023/04/24 20:53:44;;;;;;;;;;;4.80;99.90;;;;;;8271078;28;19964;-76
2023/04/24 20:57:44;;;;;;;;;;;4.70;99.90;;;;;;8276954;28;19917;-76
2023/04/24 21:01:47;;;;;;;;;;;4.70;99.90;;;;;;8296866;28;19917;-77
2023/04/24 21:05:47;;;;;;;;;;;4.70;99.90;;;;;;8292361;28;19997;-76
2023/04/24 21:09:48;;;;;;;;;;;4.90;99.90;;;;;;8298597;28;19917;-77
2023/04/24 21:13:49;;;;;;;;;;;5.10;99.90;;;;;;8277768;28;19969;-76
2023/04/24 21:17:49;;;;;;;;;;;5.20;99.90;;;;;;8277214;28;19917;-77
2023/04/24 21:21:50;;;;;;;;;;;5.20;99.90;;;;;;8272178;28;19922;-77
2023/04/24 21:25:50;;;;;;;;;;;5.20;99.90;;;;;;8289169;28;19913;-77
2023/04/24 21:29:51;;;;;;;;;;;5.20;99.90;;;;;;8291904;28;19910;-78
2023/04/24 21:33:51;;;;;;;;;;;5.30;99.90;;;;;;8293545;28;19916;-77
2023/04/24 21:37:51;;;;;;;;;;;5.40;99.90;;;;;;8293666;28;19960;-79
2023/04/24 21:41:52;;;;;;;;;;;5.50;99.90;;;;;;8291219;28;19944;-76
2023/04/24 21:45:52;;;;;;;;;;;5.70;99.90;;;;;;8274938;28;19924;-77
2023/04/24 21:49:53;;;;;;;;;;;6.10;99.90;;;;;;8293277;28;19917;-76
2023/04/24 21:53:53;;;;;;;;;;;6.20;99.90;;;;;;8274630;28;19917;-78
2023/04/24 21:57:54;;;;;;;;;;;6.20;99.90;;;;;;8293793;28;20401;-77
2023/04/24 22:01:54;;;;;;;;;;;6.20;99.90;;;;;;8273540;28;19921;-77
2023/04/24 22:05:55;;;;;;;;;;;6.30;99.90;;;;;;8292630;28;19913;-77
2023/04/24 22:09:55;;;;;;;;;;;6.20;99.90;;;;;;8292048;28;20428;-78
2023/04/24 22:13:56;;;;;;;;;;;6.10;99.90;;;;;;8288642;28;20032;-77
2023/04/24 22:17:56;;;;;;;;;;;6.00;99.90;;;;;;8290863;28;20376;-77
2023/04/24 22:21:57;;;;;;;;;;;6.10;99.90;;;;;;8292713;28;20301;-76
2023/04/24 22:25:57;;;;;;;;;;;6.30;99.90;;;;;;8291624;28;19916;-77
2023/04/24 22:29:58;;;;;;;;;;;6.50;99.90;;;;;;8287383;28;19920;-77
2023/04/24 22:33:58;;;;;;;;;;;6.70;99.90;;;;;;8287561;28;19925;-77
2023/04/24 22:37:59;;;;;;;;;;;6.70;99.90;;;;;;8289870;28;19917;-77
2023/04/24 22:41:59;;;;;;;;;;;6.60;99.90;;;;;;8268456;28;19921;-77
2023/04/24 22:46:00;;;;;;;;;;;6.50;99.90;;;;;;8285612;28;19964;-78
2023/04/24 22:50:02;;;;;;;;;;;6.50;99.90;;;;;;8273691;28;19917;-77
2023/04/24 22:54:03;;;;;;;;;;;6.50;99.90;;;;;;8273719;28;20457;-77
2023/04/24 22:58:03;;;;;;;;;;;6.60;99.90;;;;;;8290523;28;19910;-77
2023/04/24 23:02:03;;;;;;;;;;;6.80;99.90;;;;;;8284634;28;19921;-77
2023/04/24 23:06:04;;;;;;;;;;;6.80;99.90;;;;;;8290757;28;19997;-78
2023/04/24 23:10:05;;;;;;;;;;;6.90;99.90;;;;;;8273468;28;19937;-77
2023/04/24 23:14:07;;;;;;;;;;;6.80;99.90;;;;;;8277421;28;19914;-77
2023/04/24 23:18:07;;;;;;;;;;;6.80;99.90;;;;;;8273161;28;19921;-77
2023/04/24 23:22:08;;;;;;;;;;;6.80;99.90;;;;;;8284296;28;20298;-77
2023/04/24 23:26:08;;;;;;;;;;;6.70;99.90;;;;;;8290482;28;19910;-77
2023/04/24 23:30:09;;;;;;;;;;;6.60;99.90;;;;;;8288968;28;19919;-78
2023/04/24 23:34:09;;;;;;;;;;;6.60;99.90;;;;;;8270948;28;19921;-78
2023/04/24 23:38:10;;;;;;;;;;;6.50;99.90;;;;;;8289030;28;19920;-78